Wah Cantt Weather



Wah Cantt's Current Weather

Temprature 12o smoke

smoke

Rain: 0 %

Min Temprature12o
Max Temprature12o
Humidity71
Wind Speed1.39 m/h
Sun Rise06:24:43
Sun Set17:20:46
Current Time: 28-Oct-2020 07:55:33
Lat/Lon: 33.79, 72.73




Wah Cantt's Geo Location



Wah Cantt's Weather Forecast

Time Overall Temp Min Temp Max Temp Humidity Wind Speed Rain
28-Oct-2020 (Wed)
08:00:00 clear sky 15.630 15.630 19.430 49 1.39 m/h 0 %
11:00:00 clear sky 23.020 23.020 26.050 29 1.72 m/h 0 %
14:00:00 clear sky 27.650 27.650 28.720 18 1.91 m/h 0 %
17:00:00 scattered clouds 23.350 23.350 23.440 21 1.39 m/h 0 %
20:00:00 clear sky 19.320 19.320 19.320 26 2.43 m/h 0 %
23:00:00 clear sky 18.400 18.400 18.400 27 2.61 m/h 0 %
29-Oct-2020 (Thu)
02:00:00 clear sky 16.580 16.580 16.580 30 2.03 m/h 0 %
05:00:00 clear sky 14.860 14.860 14.860 33 0.92 m/h 0 %
08:00:00 clear sky 18.910 18.910 18.910 27 1.71 m/h 0 %
11:00:00 few clouds 25.960 25.960 25.960 17 2.49 m/h 0 %
14:00:00 clear sky 28.490 28.490 28.490 15 3.15 m/h 0 %
17:00:00 clear sky 23.450 23.450 23.450 21 2.04 m/h 0 %
20:00:00 clear sky 19.040 19.040 19.040 27 1.87 m/h 0 %
23:00:00 clear sky 17.270 17.270 17.270 30 2.13 m/h 0 %
30-Oct-2020 (Fri)
02:00:00 clear sky 15.850 15.850 15.850 32 2.37 m/h 0 %
05:00:00 clear sky 14.330 14.330 14.330 35 2.23 m/h 0 %
08:00:00 clear sky 17.580 17.580 17.580 29 2.09 m/h 0 %
11:00:00 clear sky 25.580 25.580 25.580 18 3.33 m/h 0 %
14:00:00 clear sky 28.590 28.590 28.590 15 4.27 m/h 0 %
17:00:00 clear sky 22.880 22.880 22.880 20 2.52 m/h 0 %
20:00:00 clear sky 17.540 17.540 17.540 27 1.38 m/h 0 %
23:00:00 clear sky 15.960 15.960 15.960 30 1.76 m/h 0 %
31-Oct-2020 (Sat)
02:00:00 clear sky 14.750 14.750 14.750 33 2.2 m/h 0 %
05:00:00 clear sky 13.580 13.580 13.580 35 2.3 m/h 0 %
08:00:00 clear sky 17.180 17.180 17.180 29 2.29 m/h 0 %
11:00:00 clear sky 25.330 25.330 25.330 17 3.73 m/h 0 %
14:00:00 clear sky 28.150 28.150 28.150 14 4.79 m/h 0 %
17:00:00 clear sky 22.890 22.890 22.890 19 2.33 m/h 0 %
20:00:00 clear sky 17.450 17.450 17.450 25 1.24 m/h 0 %
23:00:00 clear sky 15.750 15.750 15.750 29 1.63 m/h 0 %
01-Nov-2020 (Sun)
02:00:00 clear sky 14.340 14.340 14.340 32 1.77 m/h 0 %
05:00:00 clear sky 13.590 13.590 13.590 33 2.17 m/h 0 %
08:00:00 clear sky 17.440 17.440 17.440 27 1.83 m/h 0 %
11:00:00 clear sky 25.470 25.470 25.470 16 3.29 m/h 0 %
14:00:00 clear sky 28.580 28.580 28.580 13 4.41 m/h 0 %
17:00:00 clear sky 23.040 23.040 23.040 18 2.14 m/h 0 %
20:00:00 clear sky 17.870 17.870 17.870 24 1.26 m/h 0 %
23:00:00 clear sky 16.220 16.220 16.220 27 1.2 m/h 0 %
02-Nov-2020 (Mon)
02:00:00 clear sky 14.840 14.840 14.840 29 1.77 m/h 0 %
05:00:00 clear sky 13.660 13.660 13.660 33 1.72 m/h 0 %

Famous Cities (60)